createdAt,value
2019-01-15T00:00:04.449Z,0.70
2019-01-15T00:01:04.480Z,0.80
2019-01-15T00:02:04.437Z,0.80
2019-01-15T00:03:04.415Z,1.00
2019-01-15T00:04:04.405Z,0.80
2019-01-15T00:05:04.393Z,0.90
2019-01-15T00:06:04.403Z,1.00
2019-01-15T00:07:04.369Z,0.80
2019-01-15T00:08:04.356Z,1.00
2019-01-15T00:09:04.346Z,1.00
2019-01-15T00:10:04.346Z,0.80
2019-01-15T00:11:04.465Z,0.90
2019-01-15T00:12:07.903Z,1.00
2019-01-15T00:13:04.321Z,0.90
2019-01-15T00:14:04.299Z,0.90
2019-01-15T00:15:04.340Z,1.00
2019-01-15T00:16:04.282Z,0.90
2019-01-15T00:17:04.270Z,0.80
2019-01-15T00:18:04.289Z,0.90
2019-01-15T00:19:04.296Z,0.80
2019-01-15T00:20:04.267Z,0.80
2019-01-15T00:21:04.237Z,1.00
2019-01-15T00:22:04.885Z,0.90
2019-01-15T00:23:04.223Z,0.90
2019-01-15T00:24:04.207Z,0.60
2019-01-15T00:25:04.173Z,0.90
2019-01-15T00:26:04.176Z,1.00
2019-01-15T00:27:04.158Z,1.00
2019-01-15T00:28:04.128Z,0.70
2019-01-15T00:29:04.185Z,0.90
2019-01-15T00:30:04.199Z,0.90
2019-01-15T00:31:04.124Z,0.70
2019-01-15T00:32:04.124Z,0.80
2019-01-15T00:33:04.079Z,1.10
2019-01-15T00:34:04.078Z,0.90
2019-01-15T00:35:04.057Z,0.80
2019-01-15T00:36:04.045Z,0.90
2019-01-15T00:37:04.044Z,0.80
2019-01-15T00:38:04.026Z,0.90
2019-01-15T00:39:04.038Z,0.80
2019-01-15T00:40:03.996Z,1.10
2019-01-15T00:41:03.992Z,0.60
2019-01-15T00:42:03.981Z,0.90
2019-01-15T00:43:03.965Z,1.10
2019-01-15T00:44:03.986Z,1.00
2019-01-15T00:45:04.035Z,1.00
2019-01-15T00:46:03.934Z,0.90
2019-01-15T00:47:03.934Z,1.00
2019-01-15T00:48:03.935Z,1.20
2019-01-15T00:49:03.893Z,0.90
2019-01-15T00:50:03.891Z,0.90
2019-01-15T00:51:03.870Z,0.90
2019-01-15T00:52:03.913Z,0.90
2019-01-15T00:53:03.922Z,0.80
2019-01-15T00:54:03.839Z,0.90
2019-01-15T00:55:03.875Z,0.80
2019-01-15T00:56:03.848Z,0.90
2019-01-15T00:57:03.819Z,0.90
2019-01-15T00:58:03.803Z,1.00
2019-01-15T00:59:03.795Z,0.70
2019-01-15T01:00:03.789Z,0.80
2019-01-15T01:01:03.787Z,0.70
2019-01-15T01:02:03.787Z,1.10
2019-01-15T01:03:03.785Z,0.90
2019-01-15T01:04:03.726Z,0.90
2019-01-15T01:05:03.740Z,1.00
2019-01-15T01:06:03.727Z,0.80
2019-01-15T01:07:03.714Z,0.90
2019-01-15T01:08:03.681Z,0.70
2019-01-15T01:09:03.716Z,0.90
2019-01-15T01:10:03.660Z,0.90
2019-01-15T01:11:03.678Z,0.80
2019-01-15T01:12:03.653Z,1.00
2019-01-15T01:13:03.666Z,0.80
2019-01-15T01:14:03.622Z,0.80
2019-01-15T01:15:03.606Z,0.80
2019-01-15T01:16:03.604Z,0.90
2019-01-15T01:17:03.601Z,1.00
2019-01-15T01:18:03.596Z,1.00
2019-01-15T01:19:03.565Z,0.70
2019-01-15T01:20:03.546Z,0.80
2019-01-15T01:21:03.535Z,0.80
2019-01-15T01:22:03.539Z,1.00
2019-01-15T01:23:03.547Z,0.90
2019-01-15T01:24:03.522Z,1.00
2019-01-15T01:25:03.495Z,0.90
2019-01-15T01:26:03.515Z,0.90
2019-01-15T01:27:03.480Z,1.10
2019-01-15T01:28:03.466Z,1.10
2019-01-15T01:29:05.065Z,0.90
2019-01-15T01:30:03.448Z,0.80
2019-01-15T01:31:03.440Z,0.90
2019-01-15T01:32:03.462Z,0.80
2019-01-15T01:33:03.407Z,0.80
2019-01-15T01:34:03.388Z,0.90
2019-01-15T01:35:03.412Z,1.00
2019-01-15T01:36:03.367Z,0.90
2019-01-15T01:37:03.372Z,1.00
2019-01-15T01:38:03.356Z,1.00
2019-01-15T01:39:03.405Z,0.90
2019-01-15T01:40:03.324Z,1.00
2019-01-15T01:41:03.309Z,0.90
2019-01-15T01:42:03.329Z,0.90
2019-01-15T01:43:03.295Z,0.80
2019-01-15T01:44:03.280Z,0.80
2019-01-15T01:45:03.307Z,0.90
2019-01-15T01:46:03.316Z,1.00
2019-01-15T01:47:03.260Z,0.80
2019-01-15T01:48:03.245Z,0.90
2019-01-15T01:49:03.226Z,0.90
2019-01-15T01:50:03.276Z,0.80
2019-01-15T01:51:03.227Z,0.60
2019-01-15T01:52:03.203Z,0.70
2019-01-15T01:53:03.180Z,0.90
2019-01-15T01:54:03.168Z,0.80
2019-01-15T01:55:03.150Z,0.70
2019-01-15T01:56:03.138Z,1.00
2019-01-15T01:57:03.194Z,1.20
2019-01-15T01:58:03.184Z,0.80
2019-01-15T01:59:03.105Z,0.80
2019-01-15T02:00:03.130Z,0.80
2019-01-15T02:01:03.085Z,0.90
2019-01-15T02:02:03.136Z,0.90
2019-01-15T02:03:03.084Z,0.90
2019-01-15T02:04:03.051Z,0.80
2019-01-15T02:05:03.047Z,0.70
2019-01-15T02:06:03.052Z,0.90
2019-01-15T02:07:03.056Z,0.70
2019-01-15T02:08:03.030Z,0.70
2019-01-15T02:09:03.196Z,0.80
2019-01-15T02:10:02.984Z,0.80
2019-01-15T02:11:02.969Z,1.00
2019-01-15T02:12:02.974Z,1.10
2019-01-15T02:13:02.951Z,1.10
2019-01-15T02:14:02.943Z,1.10
2019-01-15T02:15:02.981Z,0.80
2019-01-15T02:16:02.915Z,0.90
2019-01-15T02:17:02.969Z,0.80
2019-01-15T02:18:02.889Z,0.70
2019-01-15T02:19:02.876Z,0.90
2019-01-15T02:20:02.880Z,0.90
2019-01-15T02:21:02.855Z,0.60
2019-01-15T02:22:02.878Z,0.80
2019-01-15T02:23:02.854Z,0.80
2019-01-15T02:24:02.824Z,0.80
2019-01-15T02:25:02.864Z,0.90
2019-01-15T02:26:02.799Z,0.70
2019-01-15T02:27:02.793Z,0.80
2019-01-15T02:28:02.794Z,0.90
2019-01-15T02:29:02.827Z,0.90
2019-01-15T02:30:02.885Z,0.70
2019-01-15T02:31:02.752Z,0.90
2019-01-15T02:32:02.778Z,0.80
2019-01-15T02:33:02.831Z,0.80
2019-01-15T02:34:03.326Z,0.70
2019-01-15T02:35:03.019Z,0.90
2019-01-15T02:36:02.689Z,0.80
2019-01-15T02:37:02.703Z,0.90
2019-01-15T02:38:02.705Z,0.70
2019-01-15T02:39:02.700Z,0.80
2019-01-15T02:40:02.662Z,0.70
2019-01-15T02:41:02.643Z,0.80
2019-01-15T02:42:02.639Z,0.90
2019-01-15T02:43:02.654Z,0.70
2019-01-15T02:44:02.745Z,0.70
2019-01-15T02:45:02.600Z,0.80
2019-01-15T02:46:02.612Z,0.80
2019-01-15T02:47:02.572Z,0.80
2019-01-15T02:48:02.579Z,0.80
2019-01-15T02:49:02.553Z,0.80
2019-01-15T02:50:02.537Z,0.80
2019-01-15T02:51:02.669Z,0.70
2019-01-15T02:52:02.664Z,1.00
2019-01-15T02:53:02.533Z,0.60
2019-01-15T02:54:02.500Z,0.80
2019-01-15T02:55:02.482Z,0.90
2019-01-15T02:56:02.491Z,0.80
2019-01-15T02:57:02.503Z,0.70
2019-01-15T02:58:02.463Z,0.80
2019-01-15T02:59:02.439Z,0.80
2019-01-15T03:00:02.425Z,0.90
2019-01-15T03:01:02.476Z,0.90
2019-01-15T03:02:02.538Z,1.00
2019-01-15T03:03:02.432Z,0.80
2019-01-15T03:04:02.429Z,0.80
2019-01-15T03:05:02.370Z,1.00
2019-01-15T03:06:02.424Z,0.90
2019-01-15T03:07:02.366Z,1.00
2019-01-15T03:08:02.362Z,0.90
2019-01-15T03:09:02.346Z,0.80
2019-01-15T03:10:02.329Z,0.90
2019-01-15T03:11:02.341Z,0.90
2019-01-15T03:12:02.320Z,0.90
2019-01-15T03:13:02.418Z,1.10
2019-01-15T03:14:02.274Z,1.00
2019-01-15T03:15:02.289Z,0.60
2019-01-15T03:16:02.300Z,0.90
2019-01-15T03:17:02.264Z,0.70
2019-01-15T03:18:02.259Z,0.70
2019-01-15T03:19:02.256Z,0.80
2019-01-15T03:20:02.283Z,1.00
2019-01-15T03:21:02.218Z,0.90
2019-01-15T03:22:02.186Z,1.40
2019-01-15T03:23:02.382Z,0.80
2019-01-15T03:24:02.171Z,0.80
2019-01-15T03:25:02.167Z,0.80
2019-01-15T03:26:02.136Z,0.70
2019-01-15T03:27:02.124Z,0.80
2019-01-15T03:28:02.134Z,0.80
2019-01-15T03:29:02.147Z,0.80
2019-01-15T03:30:02.096Z,0.80
2019-01-15T03:31:02.079Z,0.70
2019-01-15T03:32:02.073Z,0.80
2019-01-15T03:33:02.075Z,0.70
2019-01-15T03:34:02.043Z,0.80
2019-01-15T03:35:02.090Z,0.70
2019-01-15T03:36:02.057Z,0.90
2019-01-15T03:37:02.017Z,0.80
2019-01-15T03:38:02.052Z,0.70
2019-01-15T03:39:02.015Z,0.80
2019-01-15T03:40:01.981Z,0.80
2019-01-15T03:41:02.131Z,0.90
2019-01-15T03:42:01.974Z,0.80
2019-01-15T03:43:03.769Z,0.80
2019-01-15T03:44:01.941Z,0.80
2019-01-15T03:45:01.954Z,0.70
2019-01-15T03:46:04.389Z,0.80
2019-01-15T03:47:01.959Z,0.80
2019-01-15T03:48:01.912Z,0.90
2019-01-15T03:49:01.945Z,0.90
2019-01-15T03:50:01.877Z,0.80
2019-01-15T03:51:01.860Z,0.70
2019-01-15T03:52:01.856Z,0.70
2019-01-15T03:53:01.851Z,0.80
2019-01-15T03:54:01.871Z,0.90
2019-01-15T03:55:01.849Z,0.80
2019-01-15T03:56:01.828Z,0.80
2019-01-15T03:57:02.549Z,0.90
2019-01-15T03:58:01.809Z,0.60
2019-01-15T03:59:01.774Z,0.80
2019-01-15T04:00:01.768Z,0.70
2019-01-15T04:01:01.780Z,0.80
2019-01-15T04:02:01.734Z,0.60
2019-01-15T04:03:01.719Z,0.90
2019-01-15T04:04:01.779Z,0.80
2019-01-15T04:05:01.740Z,0.70
2019-01-15T04:06:01.696Z,1.00
2019-01-15T04:07:01.704Z,0.80
2019-01-15T04:08:01.670Z,0.90
2019-01-15T04:09:01.673Z,0.80
2019-01-15T04:10:01.653Z,1.00
2019-01-15T04:11:01.641Z,0.80
2019-01-15T04:12:01.690Z,0.90
2019-01-15T04:13:01.617Z,0.70
2019-01-15T04:14:01.609Z,0.90
2019-01-15T04:15:01.605Z,0.60
2019-01-15T04:16:01.581Z,0.70
2019-01-15T04:17:01.571Z,0.70
2019-01-15T04:18:01.550Z,0.60
2019-01-15T04:19:01.623Z,0.70
2019-01-15T04:20:01.568Z,0.70
2019-01-15T04:21:01.535Z,0.70
2019-01-15T04:22:01.518Z,0.80
2019-01-15T04:23:01.561Z,0.60
2019-01-15T04:24:01.496Z,0.50
2019-01-15T04:25:01.520Z,0.70
2019-01-15T04:26:01.469Z,0.70
2019-01-15T04:27:01.504Z,0.80
2019-01-15T04:28:01.445Z,0.60
2019-01-15T04:29:01.450Z,0.70
2019-01-15T04:30:01.458Z,0.80
2019-01-15T04:31:01.424Z,0.60
2019-01-15T04:32:01.405Z,0.70
2019-01-15T04:33:01.391Z,0.80
2019-01-15T04:34:01.395Z,0.70
2019-01-15T04:35:01.375Z,0.70
2019-01-15T04:36:01.350Z,0.60
2019-01-15T04:37:01.670Z,0.60
2019-01-15T04:38:01.349Z,0.70
2019-01-15T04:39:01.337Z,0.70
2019-01-15T04:40:01.318Z,0.70
2019-01-15T04:41:01.341Z,0.60
2019-01-15T04:42:01.287Z,0.70
2019-01-15T04:43:01.338Z,0.70
2019-01-15T04:44:01.279Z,0.70
2019-01-15T04:45:01.281Z,0.80
2019-01-15T04:46:01.256Z,0.60
2019-01-15T04:47:01.226Z,0.70
2019-01-15T04:48:01.213Z,0.70
2019-01-15T04:49:02.698Z,0.60
2019-01-15T04:50:01.290Z,1.00
2019-01-15T04:51:01.184Z,0.80
2019-01-15T04:52:01.178Z,0.50
2019-01-15T04:53:01.169Z,0.60
2019-01-15T04:54:01.160Z,0.80
2019-01-15T04:55:01.198Z,0.70
2019-01-15T04:56:01.159Z,0.70
2019-01-15T04:57:01.127Z,0.60
2019-01-15T04:58:01.147Z,0.50
2019-01-15T04:59:01.196Z,0.70
2019-01-15T05:00:01.079Z,0.70
2019-01-15T05:01:01.063Z,0.60
2019-01-15T05:02:01.060Z,0.80
2019-01-15T05:03:01.044Z,0.80
2019-01-15T05:04:01.116Z,0.60
2019-01-15T05:05:01.025Z,0.70
2019-01-15T05:06:01.017Z,0.70
2019-01-15T05:07:01.003Z,0.80
2019-01-15T05:08:00.991Z,0.90
2019-01-15T05:09:01.000Z,0.70
2019-01-15T05:10:04.659Z,0.70
2019-01-15T05:11:00.962Z,0.80
2019-01-15T05:12:00.948Z,0.80
2019-01-15T05:13:00.957Z,0.80
2019-01-15T05:14:00.945Z,0.70
2019-01-15T05:15:00.998Z,0.70
2019-01-15T05:16:00.930Z,0.60
2019-01-15T05:17:00.886Z,0.70
2019-01-15T05:18:00.879Z,0.50
2019-01-15T05:19:00.913Z,0.60
2019-01-15T05:20:00.858Z,0.60
2019-01-15T05:21:00.854Z,0.50
2019-01-15T05:22:00.835Z,0.80
2019-01-15T05:23:00.833Z,0.70
2019-01-15T05:24:00.839Z,0.60
2019-01-15T05:25:00.801Z,0.70
2019-01-15T05:26:00.797Z,0.70
2019-01-15T05:27:00.776Z,0.90
2019-01-15T05:28:00.787Z,0.70
2019-01-15T05:29:00.776Z,0.90
2019-01-15T05:30:00.773Z,0.70
2019-01-15T05:31:00.732Z,0.60
2019-01-15T05:32:00.720Z,0.80
2019-01-15T05:33:00.739Z,0.80
2019-01-15T05:34:00.749Z,0.80
2019-01-15T05:35:00.878Z,0.60
2019-01-15T05:36:00.683Z,0.60
2019-01-15T05:37:00.693Z,0.60
2019-01-15T05:38:00.651Z,0.60
2019-01-15T05:39:00.645Z,0.60
2019-01-15T05:40:00.669Z,0.60
2019-01-15T05:41:00.624Z,0.70
2019-01-15T05:42:00.609Z,0.70
2019-01-15T05:43:00.606Z,0.50
2019-01-15T05:44:00.594Z,0.70
2019-01-15T05:45:00.636Z,0.80
2019-01-15T05:46:00.567Z,0.80
2019-01-15T05:47:00.733Z,0.60
2019-01-15T05:48:00.559Z,0.60
2019-01-15T05:49:00.543Z,0.80
2019-01-15T05:50:00.536Z,0.90
2019-01-15T05:51:00.515Z,0.50
2019-01-15T05:52:00.523Z,0.70
2019-01-15T05:53:00.529Z,0.60
2019-01-15T05:54:00.475Z,0.80
2019-01-15T05:55:00.476Z,0.80
2019-01-15T05:56:00.490Z,0.50
2019-01-15T05:57:00.442Z,0.80
2019-01-15T05:58:00.423Z,0.80
2019-01-15T05:59:00.446Z,0.90
2019-01-15T06:00:00.428Z,0.70
2019-01-15T06:01:00.450Z,0.60
2019-01-15T06:02:00.383Z,0.60
2019-01-15T06:03:00.521Z,0.80
2019-01-15T06:04:00.368Z,0.60
2019-01-15T06:05:00.385Z,0.80
2019-01-15T06:06:00.344Z,0.60
2019-01-15T06:07:00.334Z,0.60
2019-01-15T06:08:00.316Z,0.60
2019-01-15T06:09:00.324Z,0.70
2019-01-15T06:10:00.315Z,0.60
2019-01-15T06:11:00.288Z,0.60
2019-01-15T06:12:00.345Z,0.80
2019-01-15T06:13:00.301Z,0.60
2019-01-15T06:14:00.273Z,0.60
2019-01-15T06:15:00.268Z,0.80
2019-01-15T06:16:00.226Z,0.70
2019-01-15T06:17:00.214Z,0.70
2019-01-15T06:18:00.202Z,0.60
2019-01-15T06:19:00.193Z,0.50
2019-01-15T06:20:00.340Z,0.60
2019-01-15T06:21:00.170Z,0.60
2019-01-15T06:22:00.201Z,0.80
2019-01-15T06:23:00.161Z,0.60
2019-01-15T06:24:00.134Z,0.90
2019-01-15T06:25:00.181Z,0.60
2019-01-15T06:26:08.036Z,0.60
2019-01-15T06:27:00.110Z,0.80
2019-01-15T06:28:00.124Z,0.60
2019-01-15T06:29:00.101Z,0.80
2019-01-15T06:30:00.177Z,0.70
2019-01-15T06:31:00.059Z,0.60
2019-01-15T06:32:00.045Z,0.60
2019-01-15T06:33:00.035Z,0.60
2019-01-15T06:34:00.026Z,0.60
2019-01-15T06:35:00.069Z,0.90
2019-01-15T06:36:00.010Z,0.60
2019-01-15T06:37:00.009Z,0.80
2019-01-15T06:38:00.080Z,0.70
2019-01-15T06:39:00.025Z,0.60
2019-01-15T06:39:59.955Z,0.80
2019-01-15T06:40:59.966Z,1.10
2019-01-15T06:41:59.941Z,0.70
2019-01-15T06:42:59.934Z,0.60
2019-01-15T06:43:59.924Z,0.70
2019-01-15T06:44:59.969Z,0.80
2019-01-15T06:45:59.935Z,0.60
2019-01-15T06:46:59.873Z,0.80
2019-01-15T06:47:59.898Z,0.80
2019-01-15T06:48:59.855Z,0.90
2019-01-15T06:49:59.896Z,0.80
2019-01-15T06:50:59.861Z,0.80
2019-01-15T06:51:59.825Z,0.80
2019-01-15T06:52:59.813Z,0.90
2019-01-15T06:53:59.806Z,0.90
2019-01-15T06:54:59.859Z,0.80
2019-01-15T06:55:59.792Z,0.80
2019-01-15T06:56:59.785Z,1.00
2019-01-15T06:57:59.764Z,0.80
2019-01-15T06:58:59.745Z,0.80
2019-01-15T06:59:59.732Z,1.20
2019-01-15T07:00:59.797Z,1.10
2019-01-15T07:01:59.749Z,0.70
2019-01-15T07:02:59.721Z,0.90
2019-01-15T07:03:59.701Z,0.70
2019-01-15T07:04:59.687Z,1.30
2019-01-15T07:05:59.689Z,1.10
2019-01-15T07:06:59.661Z,1.10
2019-01-15T07:07:59.683Z,0.70
2019-01-15T07:08:59.633Z,1.30
2019-01-15T07:09:59.639Z,1.30
2019-01-15T07:10:59.669Z,1.10
2019-01-15T07:11:59.618Z,0.80
2019-01-15T07:12:59.602Z,0.90
2019-01-15T07:13:59.690Z,0.80
2019-01-15T07:14:59.589Z,0.90
2019-01-15T07:15:59.589Z,0.90
2019-01-15T07:16:59.564Z,0.60
2019-01-15T07:17:59.593Z,0.90
2019-01-15T07:18:59.537Z,0.70
2019-01-15T07:19:59.557Z,0.90
2019-01-15T07:20:59.550Z,1.00
2019-01-15T07:21:59.511Z,1.00
2019-01-15T07:22:59.481Z,1.10
2019-01-15T07:23:59.468Z,1.00
2019-01-15T07:24:59.480Z,1.00
2019-01-15T07:25:59.524Z,0.80
2019-01-15T07:26:59.457Z,0.90
2019-01-15T07:27:59.556Z,0.90
2019-01-15T07:28:59.434Z,1.00
2019-01-15T07:29:59.519Z,0.80
2019-01-15T07:30:59.647Z,0.90
2019-01-15T07:32:00.625Z,0.70
2019-01-15T07:32:59.395Z,0.70
2019-01-15T07:33:59.364Z,0.70
2019-01-15T07:34:59.360Z,0.80
2019-01-15T07:35:59.367Z,1.00
2019-01-15T07:36:59.342Z,0.80
2019-01-15T07:37:59.388Z,0.70
2019-01-15T07:38:59.352Z,0.80
2019-01-15T07:39:59.315Z,0.80
2019-01-15T07:40:59.320Z,0.70
2019-01-15T07:41:59.289Z,1.10
2019-01-15T07:42:59.302Z,1.00
2019-01-15T07:44:04.266Z,0.80
2019-01-15T07:44:59.243Z,1.00
2019-01-15T07:45:59.256Z,0.70
2019-01-15T07:46:59.229Z,0.90
2019-01-15T07:47:59.205Z,1.00
2019-01-15T07:48:59.194Z,0.70
2019-01-15T07:50:00.535Z,0.50
2019-01-15T07:50:59.245Z,0.90
2019-01-15T07:51:59.224Z,0.80
2019-01-15T07:52:59.163Z,1.00
2019-01-15T07:53:59.160Z,0.80
2019-01-15T07:54:59.128Z,1.00
2019-01-15T07:55:59.168Z,0.80
2019-01-15T07:56:59.112Z,1.00
2019-01-15T07:57:59.137Z,0.80
2019-01-15T07:58:59.105Z,0.80
2019-01-15T07:59:59.127Z,0.70
2019-01-15T08:00:59.098Z,0.80
2019-01-15T08:01:59.120Z,0.70
2019-01-15T08:02:59.064Z,1.00
2019-01-15T08:03:59.034Z,1.00
2019-01-15T08:04:59.079Z,0.90
2019-01-15T08:05:59.035Z,0.70
2019-01-15T08:06:59.169Z,0.80
2019-01-15T08:07:59.014Z,0.90
2019-01-15T08:08:58.979Z,0.90
2019-01-15T08:09:58.987Z,0.90
2019-01-15T08:11:07.746Z,0.90
2019-01-15T08:11:59.052Z,0.80
2019-01-15T08:12:58.993Z,0.90
2019-01-15T08:13:58.936Z,0.70
2019-01-15T08:14:59.003Z,0.70
2019-01-15T08:15:58.925Z,1.00
2019-01-15T08:16:58.902Z,0.90
2019-01-15T08:17:58.874Z,0.90
2019-01-15T08:18:58.866Z,1.10
2019-01-15T08:19:58.855Z,0.70
2019-01-15T08:20:58.917Z,0.70
2019-01-15T08:21:59.094Z,0.90
2019-01-15T08:22:58.827Z,0.90
2019-01-15T08:23:58.833Z,0.70
2019-01-15T08:24:58.800Z,0.70
2019-01-15T08:25:58.793Z,1.10
2019-01-15T08:26:58.821Z,1.10
2019-01-15T08:27:58.815Z,1.20
2019-01-15T08:28:58.891Z,0.80
2019-01-15T08:29:58.809Z,0.90
2019-01-15T08:30:58.819Z,1.20
2019-01-15T08:31:58.747Z,0.90
2019-01-15T08:32:58.719Z,1.00
2019-01-15T08:33:58.703Z,0.90
2019-01-15T08:34:59.369Z,1.10
2019-01-15T08:35:58.722Z,1.20
2019-01-15T08:37:00.051Z,0.90
2019-01-15T08:37:58.656Z,1.90
2019-01-15T08:38:58.717Z,0.90
2019-01-15T08:39:58.631Z,1.10
2019-01-15T08:40:58.672Z,0.90
2019-01-15T08:41:58.624Z,1.40
2019-01-15T08:42:58.656Z,1.60
2019-01-15T08:43:58.588Z,1.10
2019-01-15T08:44:58.581Z,1.50
2019-01-15T08:45:58.606Z,1.50
2019-01-15T08:46:58.586Z,1.60
2019-01-15T08:47:58.545Z,1.30
2019-01-15T08:48:58.542Z,1.20
2019-01-15T08:49:58.518Z,1.40
2019-01-15T08:50:58.523Z,2.10
2019-01-15T08:51:59.386Z,1.30
2019-01-15T08:52:58.525Z,1.50
2019-01-15T08:53:58.489Z,1.90
2019-01-15T08:54:58.811Z,1.80
2019-01-15T08:55:58.468Z,1.30
2019-01-15T08:57:00.250Z,1.40
2019-01-15T08:57:58.483Z,1.20
2019-01-15T08:58:58.439Z,1.70
2019-01-15T08:59:58.451Z,1.40
2019-01-15T09:00:58.399Z,1.40
2019-01-15T09:01:58.401Z,1.40
2019-01-15T09:02:58.402Z,1.30
2019-01-15T09:03:58.365Z,1.70
2019-01-15T09:04:58.355Z,1.50
2019-01-15T09:05:58.339Z,1.60
2019-01-15T09:06:58.334Z,1.20
2019-01-15T09:07:58.333Z,1.50
2019-01-15T09:08:58.333Z,1.60
2019-01-15T09:09:58.291Z,1.20
2019-01-15T09:10:58.293Z,1.70
2019-01-15T09:11:58.267Z,1.60
2019-01-15T09:12:58.284Z,1.40
2019-01-15T09:13:58.244Z,1.30
2019-01-15T09:14:58.489Z,1.10
2019-01-15T09:15:58.225Z,1.40
2019-01-15T09:16:58.225Z,1.20
2019-01-15T09:17:58.228Z,1.30
2019-01-15T09:18:58.196Z,1.20
2019-01-15T09:19:58.182Z,1.60
2019-01-15T09:20:58.209Z,1.70
2019-01-15T09:21:58.160Z,1.10
2019-01-15T09:22:58.805Z,1.20
2019-01-15T09:23:58.148Z,1.50
2019-01-15T09:24:58.155Z,1.50
2019-01-15T09:25:58.122Z,1.30
2019-01-15T09:26:58.113Z,1.20
2019-01-15T09:27:58.116Z,1.40
2019-01-15T09:28:58.086Z,1.30
2019-01-15T09:29:58.089Z,1.30
2019-01-15T09:30:58.066Z,1.10
2019-01-15T09:31:58.055Z,1.00
2019-01-15T09:32:58.084Z,1.30
2019-01-15T09:33:58.058Z,1.40
2019-01-15T09:34:58.026Z,1.40
2019-01-15T09:36:03.111Z,1.20
2019-01-15T09:36:57.999Z,1.40
2019-01-15T09:37:58.007Z,1.40
2019-01-15T09:38:59.141Z,1.20
2019-01-15T09:39:57.989Z,1.40
2019-01-15T09:40:57.946Z,1.10
2019-01-15T09:41:57.937Z,1.30
2019-01-15T09:42:57.947Z,1.60
2019-01-15T09:43:57.922Z,1.40
2019-01-15T09:44:58.542Z,1.20
2019-01-15T09:45:57.914Z,2.00
2019-01-15T09:46:57.897Z,1.30
2019-01-15T09:47:57.879Z,1.10
2019-01-15T09:48:57.864Z,1.60
2019-01-15T09:49:58.146Z,1.50
2019-01-15T09:50:58.091Z,1.20
2019-01-15T09:51:58.385Z,1.10
2019-01-15T09:52:57.837Z,1.20
2019-01-15T09:53:57.894Z,1.40
2019-01-15T09:54:57.814Z,1.20
2019-01-15T09:55:57.831Z,1.10
2019-01-15T09:56:57.769Z,1.40
2019-01-15T09:57:58.050Z,1.00
2019-01-15T09:58:57.764Z,1.30
2019-01-15T09:59:57.873Z,1.60
2019-01-15T10:00:57.745Z,1.20
2019-01-15T10:01:57.736Z,1.10
2019-01-15T10:02:57.722Z,1.00
2019-01-15T10:03:57.713Z,1.40
2019-01-15T10:04:57.693Z,1.30
2019-01-15T10:05:57.669Z,1.10
2019-01-15T10:06:57.673Z,1.00
2019-01-15T10:07:57.652Z,1.20
2019-01-15T10:08:57.658Z,1.00
2019-01-15T10:09:57.724Z,1.00
2019-01-15T10:10:59.151Z,1.00
2019-01-15T10:11:57.615Z,1.10
2019-01-15T10:12:57.590Z,1.20
2019-01-15T10:13:58.346Z,1.20
2019-01-15T10:14:58.971Z,1.20
2019-01-15T10:15:57.575Z,1.30
2019-01-15T10:17:02.433Z,1.10
2019-01-15T10:17:57.686Z,1.20
2019-01-15T10:18:57.554Z,1.20
2019-01-15T10:19:57.522Z,1.20
2019-01-15T10:20:57.514Z,1.20
2019-01-15T10:21:57.495Z,1.50
2019-01-15T10:22:57.486Z,1.30
2019-01-15T10:23:57.769Z,1.10
2019-01-15T10:24:57.495Z,1.50
2019-01-15T10:25:57.889Z,1.30
2019-01-15T10:26:57.451Z,1.20
2019-01-15T10:27:57.466Z,1.30
2019-01-15T10:28:57.433Z,1.30
2019-01-15T10:29:59.291Z,1.60
2019-01-15T10:30:57.407Z,1.30
2019-01-15T10:31:59.073Z,1.50
2019-01-15T10:32:57.394Z,1.10
2019-01-15T10:33:57.372Z,1.20
2019-01-15T10:34:57.364Z,1.30
2019-01-15T10:35:57.354Z,1.60
2019-01-15T10:36:59.116Z,1.70
2019-01-15T10:37:57.535Z,1.50
2019-01-15T10:38:57.334Z,1.50
2019-01-15T10:39:57.307Z,1.50
2019-01-15T10:40:57.274Z,1.70
2019-01-15T10:41:57.338Z,1.80
2019-01-15T10:42:57.349Z,1.50
2019-01-15T10:43:57.258Z,1.50
2019-01-15T10:44:57.245Z,1.80
2019-01-15T10:45:57.225Z,1.70
2019-01-15T10:46:57.220Z,1.60
2019-01-15T10:47:57.266Z,1.70
2019-01-15T10:48:57.253Z,1.60
2019-01-15T10:49:57.195Z,1.40
2019-01-15T10:50:57.168Z,2.00
2019-01-15T10:51:57.251Z,2.00
2019-01-15T10:52:57.144Z,1.50
2019-01-15T10:53:57.163Z,2.10
2019-01-15T10:54:57.138Z,1.70
2019-01-15T10:55:57.130Z,1.80
2019-01-15T10:56:57.105Z,1.90
2019-01-15T10:57:58.405Z,1.50
2019-01-15T10:58:57.099Z,1.60
2019-01-15T10:59:57.087Z,1.60
2019-01-15T11:00:57.064Z,1.70
2019-01-15T11:01:57.624Z,2.10
2019-01-15T11:02:57.080Z,2.10
2019-01-15T11:03:57.071Z,1.80
2019-01-15T11:04:57.075Z,1.70
2019-01-15T11:05:57.008Z,2.00
2019-01-15T11:06:56.985Z,1.60
2019-01-15T11:07:57.986Z,2.00
2019-01-15T11:08:56.975Z,1.80
2019-01-15T11:09:56.982Z,1.80
2019-01-15T11:10:58.264Z,2.00
2019-01-15T11:11:56.934Z,1.90
2019-01-15T11:12:56.933Z,1.70
2019-01-15T11:13:56.916Z,1.70
2019-01-15T11:14:56.898Z,1.80
2019-01-15T11:15:56.889Z,2.00
2019-01-15T11:16:56.919Z,2.00
2019-01-15T11:17:56.857Z,1.70
2019-01-15T11:18:56.852Z,1.70
2019-01-15T11:19:56.892Z,1.30
2019-01-15T11:20:56.833Z,1.80
2019-01-15T11:21:56.816Z,2.10
2019-01-15T11:22:56.819Z,1.60
2019-01-15T11:23:56.805Z,1.80
2019-01-15T11:24:58.911Z,1.80
2019-01-15T11:25:56.802Z,1.70
2019-01-15T11:26:56.788Z,1.80
2019-01-15T11:27:56.791Z,2.00
2019-01-15T11:28:56.739Z,2.10
2019-01-15T11:29:56.772Z,1.60
2019-01-15T11:30:56.716Z,1.90
2019-01-15T11:31:56.728Z,2.00
2019-01-15T11:32:56.707Z,1.70
2019-01-15T11:33:56.706Z,2.00
2019-01-15T11:34:56.687Z,1.60
2019-01-15T11:35:56.653Z,1.90
2019-01-15T11:36:56.662Z,1.90
2019-01-15T11:37:56.650Z,1.50
2019-01-15T11:38:58.775Z,1.70
2019-01-15T11:39:56.640Z,1.60
2019-01-15T11:40:56.629Z,2.10
2019-01-15T11:41:56.604Z,2.00
2019-01-15T11:42:56.602Z,1.60
2019-01-15T11:43:56.616Z,1.80
2019-01-15T11:45:03.191Z,2.10
2019-01-15T11:45:56.583Z,2.00
2019-01-15T11:46:56.553Z,1.60
2019-01-15T11:47:56.620Z,2.10
2019-01-15T11:48:56.543Z,1.70
2019-01-15T11:49:56.529Z,2.00
2019-01-15T11:50:56.500Z,1.90
2019-01-15T11:51:56.491Z,1.50
2019-01-15T11:52:56.467Z,1.90
2019-01-15T11:53:56.462Z,1.80
2019-01-15T11:54:56.484Z,1.70
2019-01-15T11:55:56.436Z,1.80
2019-01-15T11:56:56.939Z,1.60
2019-01-15T11:57:56.413Z,1.80
2019-01-15T11:58:56.414Z,1.60
2019-01-15T11:59:56.459Z,1.90
2019-01-15T12:00:56.875Z,1.50
2019-01-15T12:01:56.489Z,1.50
2019-01-15T12:02:56.350Z,1.90
2019-01-15T12:03:56.342Z,1.60
2019-01-15T12:04:56.384Z,1.50
2019-01-15T12:05:56.562Z,1.40
2019-01-15T12:06:56.453Z,1.70
2019-01-15T12:07:56.330Z,1.40
2019-01-15T12:08:56.704Z,1.40
2019-01-15T12:09:57.247Z,1.40
2019-01-15T12:10:59.834Z,1.50
2019-01-15T12:11:56.254Z,1.60
2019-01-15T12:12:56.387Z,1.50
2019-01-15T12:13:56.228Z,1.30
2019-01-15T12:14:59.804Z,1.70
2019-01-15T12:15:56.283Z,1.60
2019-01-15T12:16:56.191Z,1.50
2019-01-15T12:17:56.213Z,1.20
2019-01-15T12:18:56.172Z,1.50
2019-01-15T12:19:56.173Z,1.70
2019-01-15T12:20:56.215Z,1.20
2019-01-15T12:21:56.256Z,1.20
2019-01-15T12:22:56.136Z,1.60
2019-01-15T12:23:56.135Z,1.40
2019-01-15T12:24:56.127Z,1.30
2019-01-15T12:25:56.110Z,1.40
2019-01-15T12:26:56.117Z,1.70
2019-01-15T12:27:56.097Z,1.60
2019-01-15T12:28:56.185Z,1.60
2019-01-15T12:29:56.072Z,2.00
2019-01-15T12:30:56.133Z,1.80
2019-01-15T12:31:56.049Z,1.30
2019-01-15T12:32:56.030Z,1.20
2019-01-15T12:33:56.044Z,1.60
2019-01-15T12:34:55.991Z,1.50
2019-01-15T12:35:56.001Z,1.50
2019-01-15T12:36:55.984Z,1.80
2019-01-15T12:37:57.100Z,1.50
2019-01-15T12:38:55.953Z,1.50
2019-01-15T12:39:55.941Z,1.60
2019-01-15T12:40:55.935Z,1.50
2019-01-15T12:41:55.912Z,1.40
2019-01-15T12:42:55.918Z,1.50
2019-01-15T12:43:55.897Z,1.40
2019-01-15T12:44:55.900Z,1.40
2019-01-15T12:45:55.933Z,1.50
2019-01-15T12:46:55.891Z,1.80
2019-01-15T12:47:55.846Z,1.70
2019-01-15T12:48:55.855Z,1.50
2019-01-15T12:49:55.849Z,1.20
2019-01-15T12:50:55.810Z,2.10
2019-01-15T12:51:55.832Z,1.60
2019-01-15T12:52:55.799Z,1.60
2019-01-15T12:53:55.825Z,1.70
2019-01-15T12:54:55.790Z,1.70
2019-01-15T12:55:55.791Z,1.50
2019-01-15T12:56:55.765Z,1.80
2019-01-15T12:57:55.745Z,1.80
2019-01-15T12:58:55.742Z,1.70
2019-01-15T12:59:55.749Z,1.60
2019-01-15T13:00:55.703Z,1.80
2019-01-15T13:01:55.724Z,1.70
2019-01-15T13:02:55.743Z,1.70
2019-01-15T13:03:55.671Z,1.50
2019-01-15T13:04:55.662Z,2.00
2019-01-15T13:05:55.712Z,1.80
2019-01-15T13:06:55.653Z,2.10
2019-01-15T13:07:55.632Z,2.10
2019-01-15T13:08:55.682Z,2.00
2019-01-15T13:09:55.731Z,1.70
2019-01-15T13:10:55.601Z,1.50
2019-01-15T13:11:55.791Z,1.90
2019-01-15T13:12:55.577Z,1.80
2019-01-15T13:13:55.641Z,2.00
2019-01-15T13:14:55.576Z,1.70
2019-01-15T13:15:55.549Z,2.20
2019-01-15T13:16:55.556Z,1.50
2019-01-15T13:17:55.521Z,1.60